Time;durP1;ratioP1;P1;durP2;ratioP2;P2;SDS_P1;SDS_P2;PMS_P1;PMS_P2;Temp;Humidity;BMP_temperature;BMP_pressure;BME280_temperature;BME280_humidity;BME280_pressure;Samples;Min_cycle;Max_cycle;Signal;HPM_P1;HPM_P2
2023/06/01 00:01:32;;;;;;;1.45;0.70;;;18.70;54.70;;;;;;5014620;28;20233;-55
2023/06/01 00:04:03;;;;;;;0.70;0.57;;;18.70;54.70;;;;;;5015139;28;20197;-55
2023/06/01 00:06:34;;;;;;;0.60;0.60;;;18.70;54.70;;;;;;5014358;28;20200;-52
2023/06/01 00:09:04;;;;;;;0.80;0.52;;;18.70;54.70;;;;;;5014479;28;20196;-52
2023/06/01 00:11:35;;;;;;;1.83;0.82;;;18.70;54.70;;;;;;5014810;28;20229;-54
2023/06/01 00:14:08;;;;;;;0.63;0.60;;;18.70;54.70;;;;;;5014861;28;20204;-53
2023/06/01 00:16:38;;;;;;;1.13;0.70;;;18.70;54.60;;;;;;5014572;28;20208;-51
2023/06/01 00:19:11;;;;;;;0.95;0.60;;;18.70;54.60;;;;;;5014528;28;20596;-55
2023/06/01 00:21:41;;;;;;;0.40;0.40;;;18.70;54.60;;;;;;5014532;28;20264;-55
2023/06/01 00:24:12;;;;;;;0.90;0.50;;;18.70;54.60;;;;;;5014780;28;20566;-57
2023/06/01 00:26:43;;;;;;;0.57;0.30;;;18.80;54.60;;;;;;5014877;28;20200;-53
2023/06/01 00:29:15;;;;;;;0.40;0.35;;;18.80;54.50;;;;;;5011959;28;20192;-52
2023/06/01 00:31:46;;;;;;;0.70;0.40;;;18.80;54.40;;;;;;5001142;28;20215;-52
2023/06/01 00:34:16;;;;;;;0.30;0.30;;;18.80;54.40;;;;;;5013478;28;20200;-58
2023/06/01 00:36:47;;;;;;;2.47;0.45;;;18.80;54.50;;;;;;5013236;28;20205;-53
2023/06/01 00:39:18;;;;;;;0.65;0.50;;;18.80;54.50;;;;;;5013404;28;20246;-54
2023/06/01 00:41:49;;;;;;;0.40;0.40;;;18.80;54.50;;;;;;5013656;28;20260;-55
2023/06/01 00:44:21;;;;;;;0.95;0.40;;;18.80;54.50;;;;;;5013612;28;20259;-54
2023/06/01 00:46:54;;;;;;;0.80;0.43;;;18.90;54.50;;;;;;5013221;28;20200;-55
2023/06/01 00:49:25;;;;;;;0.95;0.40;;;18.80;54.40;;;;;;5013655;28;20200;-50
2023/06/01 00:51:55;;;;;;;0.35;0.30;;;18.90;54.30;;;;;;5013708;28;20304;-54
2023/06/01 00:54:26;;;;;;;0.80;0.30;;;18.80;54.30;;;;;;5013163;28;20608;-53
2023/06/01 00:56:57;;;;;;;0.30;0.30;;;18.90;54.30;;;;;;5013802;28;20573;-53
2023/06/01 00:59:29;;;;;;;0.90;0.50;;;18.90;54.30;;;;;;5011740;28;20197;-54
2023/06/01 01:02:03;;;;;;;0.98;0.50;;;18.90;54.30;;;;;;5013738;28;20240;-56
2023/06/01 01:04:34;;;;;;;0.43;0.40;;;18.90;54.30;;;;;;5013878;28;20289;-48
2023/06/01 01:07:20;;;;;;;0.88;0.45;;;18.90;54.30;;;;;;5013193;28;20193;-54
2023/06/01 01:09:56;;;;;;;0.50;0.40;;;18.90;54.60;;;;;;5013287;28;20608;-54
2023/06/01 01:12:33;;;;;;;0.38;0.32;;;18.90;54.50;;;;;;5012740;28;20255;-53
2023/06/01 01:15:13;;;;;;;0.50;0.30;;;18.90;54.50;;;;;;5013570;28;20566;-54
2023/06/01 01:17:47;;;;;;;0.68;0.50;;;19.00;54.60;;;;;;5011930;28;20189;-55
2023/06/01 01:20:24;;;;;;;0.30;0.30;;;19.00;54.50;;;;;;5012620;28;20207;-52
2023/06/01 01:23:13;;;;;;;0.75;0.50;;;19.00;54.50;;;;;;5011776;28;20723;-56
2023/06/01 01:26:17;;;;;;;0.30;0.30;;;19.00;54.40;;;;;;5013576;28;20287;-54
2023/06/01 01:28:51;;;;;;;0.30;0.30;;;19.00;54.40;;;;;;5013177;28;20224;-55
2023/06/01 01:31:25;;;;;;;0.55;0.43;;;19.00;54.30;;;;;;5012997;28;20223;-56
2023/06/01 01:33:58;;;;;;;0.28;0.22;;;19.00;54.40;;;;;;5012800;28;20192;-54
2023/06/01 01:36:30;;;;;;;0.45;0.43;;;19.00;54.40;;;;;;5012847;28;20197;-53
2023/06/01 01:39:00;;;;;;;0.30;0.30;;;19.10;54.50;;;;;;5012209;28;20193;-52
2023/06/01 01:41:31;;;;;;;0.70;0.30;;;19.10;54.40;;;;;;5012531;28;20640;-55
2023/06/01 01:44:04;;;;;;;0.20;0.20;;;19.10;54.50;;;;;;5012611;28;20200;-54
2023/06/01 01:46:39;;;;;;;0.85;0.32;;;19.10;54.40;;;;;;5012913;28;20212;-50
2023/06/01 01:49:14;;;;;;;0.73;0.40;;;19.10;54.50;;;;;;5012166;28;20700;-53
2023/06/01 01:51:51;;;;;;;0.57;0.40;;;19.10;54.50;;;;;;5012580;28;20632;-51
2023/06/01 01:54:23;;;;;;;0.70;0.30;;;19.10;54.50;;;;;;5012325;28;20193;-53
2023/06/01 01:56:59;;;;;;;0.30;0.30;;;19.10;54.40;;;;;;5012465;28;20554;-53
2023/06/01 01:59:32;;;;;;;0.32;0.22;;;19.10;54.40;;;;;;5012456;28;20639;-53
2023/06/01 02:02:03;;;;;;;0.68;0.20;;;19.10;54.40;;;;;;5012100;28;20232;-53
2023/06/01 02:04:34;;;;;;;0.20;0.20;;;19.20;54.40;;;;;;5012966;28;20193;-51
2023/06/01 02:07:05;;;;;;;1.17;0.40;;;19.10;54.30;;;;;;5012624;28;20240;-53
2023/06/01 02:09:35;;;;;;;1.00;0.30;;;19.10;54.40;;;;;;5012611;28;20208;-56
2023/06/01 02:12:06;;;;;;;0.45;0.30;;;19.10;54.40;;;;;;5012354;28;20232;-55
2023/06/01 02:14:39;;;;;;;0.55;0.40;;;19.20;54.30;;;;;;5012139;28;20205;-53
2023/06/01 02:17:10;;;;;;;0.52;0.30;;;19.20;54.30;;;;;;5011766;28;20204;-52
2023/06/01 02:19:40;;;;;;;0.20;0.20;;;19.20;54.30;;;;;;5011885;28;20288;-52
2023/06/01 02:22:11;;;;;;;0.30;0.30;;;19.20;54.30;;;;;;5012285;28;20241;-54
2023/06/01 02:24:41;;;;;;;0.45;0.40;;;19.20;54.30;;;;;;5012416;28;20204;-55
2023/06/01 02:27:12;;;;;;;0.45;0.43;;;19.20;54.30;;;;;;5012557;28;20201;-55
2023/06/01 02:29:45;;;;;;;1.75;0.32;;;19.20;54.30;;;;;;5012455;28;20871;-51
2023/06/01 02:32:15;;;;;;;0.10;0.10;;;19.20;54.30;;;;;;5011630;28;20213;-56
2023/06/01 02:34:46;;;;;;;1.00;0.30;;;19.20;54.30;;;;;;5012086;28;20587;-54
2023/06/01 02:37:17;;;;;;;0.20;0.20;;;19.20;54.30;;;;;;5012089;28;20206;-56
2023/06/01 02:39:47;;;;;;;0.28;0.28;;;19.20;54.30;;;;;;5011835;28;20204;-53
2023/06/01 02:42:18;;;;;;;0.95;0.38;;;19.20;54.30;;;;;;5011144;28;20229;-54
2023/06/01 02:44:50;;;;;;;0.82;0.30;;;19.20;54.20;;;;;;5011855;28;20204;-52
2023/06/01 02:47:21;;;;;;;0.20;0.20;;;19.30;54.30;;;;;;5012147;28;20200;-54
2023/06/01 02:49:52;;;;;;;0.43;0.40;;;19.30;54.30;;;;;;5011699;28;20255;-49
2023/06/01 02:52:22;;;;;;;0.30;0.30;;;19.30;54.20;;;;;;5010483;28;20589;-55
2023/06/01 02:54:53;;;;;;;0.30;0.30;;;19.30;54.20;;;;;;5011273;28;20533;-53
2023/06/01 02:57:23;;;;;;;1.67;0.30;;;19.30;54.30;;;;;;5011323;28;20200;-53
2023/06/01 02:59:56;;;;;;;0.30;0.30;;;19.30;54.20;;;;;;5011414;28;20207;-53
2023/06/01 03:02:29;;;;;;;0.22;0.22;;;19.30;54.10;;;;;;5011544;28;20224;-49
2023/06/01 03:05:00;;;;;;;0.40;0.30;;;19.30;54.10;;;;;;5011840;28;20676;-51
2023/06/01 03:07:30;;;;;;;0.22;0.22;;;19.30;54.10;;;;;;5011529;28;20203;-50
2023/06/01 03:10:01;;;;;;;0.65;0.47;;;19.30;54.70;;;;;;5011610;28;20204;-56
2023/06/01 03:12:32;;;;;;;0.22;0.22;;;19.30;54.10;;;;;;5011621;28;20236;-56
2023/06/01 03:15:04;;;;;;;0.75;0.30;;;19.30;54.10;;;;;;5012082;28;20236;-54
2023/06/01 03:17:35;;;;;;;0.38;0.30;;;19.30;54.10;;;;;;5011212;28;20841;-55
2023/06/01 03:20:14;;;;;;;0.38;0.38;;;19.30;54.10;;;;;;5011358;28;20231;-56
2023/06/01 03:22:45;;;;;;;0.32;0.30;;;19.30;54.10;;;;;;5010418;28;20232;-56
2023/06/01 03:25:16;;;;;;;1.48;0.28;;;19.30;54.00;;;;;;5011212;28;20203;-55
2023/06/01 03:27:47;;;;;;;0.30;0.30;;;19.30;54.00;;;;;;5007971;28;20200;-55
2023/06/01 03:30:21;;;;;;;0.30;0.30;;;19.40;54.10;;;;;;5010890;28;20288;-54
2023/06/01 03:32:51;;;;;;;0.35;0.28;;;19.40;54.10;;;;;;5011103;28;20553;-52
2023/06/01 03:35:22;;;;;;;1.65;0.30;;;19.40;54.10;;;;;;5010953;28;20554;-53
2023/06/01 03:37:53;;;;;;;0.50;0.25;;;19.40;54.10;;;;;;5010827;28;20569;-53
2023/06/01 03:40:23;;;;;;;0.30;0.30;;;19.40;54.10;;;;;;5010754;28;20196;-58
2023/06/01 03:42:54;;;;;;;0.60;0.43;;;19.40;54.10;;;;;;5010779;28;20221;-57
2023/06/01 03:45:27;;;;;;;0.63;0.30;;;19.40;54.70;;;;;;5011084;28;20255;-55
2023/06/01 03:47:57;;;;;;;0.43;0.32;;;19.40;54.10;;;;;;5009379;28;20196;-56
2023/06/01 03:50:28;;;;;;;0.55;0.22;;;19.40;54.10;;;;;;5010898;28;20207;-57
2023/06/01 03:52:58;;;;;;;0.32;0.32;;;19.40;54.10;;;;;;5010031;28;20224;-54
2023/06/01 03:55:30;;;;;;;0.88;0.30;;;19.50;54.10;;;;;;5011384;28;20570;-55
2023/06/01 03:58:02;;;;;;;0.38;0.25;;;19.50;54.10;;;;;;5011076;28;20236;-57
2023/06/01 04:00:35;;;;;;;1.27;0.28;;;19.50;54.10;;;;;;5011362;28;20283;-56
2023/06/01 04:03:07;;;;;;;0.43;0.30;;;19.50;54.10;;;;;;5010740;28;20712;-57
2023/06/01 04:05:38;;;;;;;0.30;0.28;;;19.50;54.10;;;;;;5010561;28;20243;-55
2023/06/01 04:08:08;;;;;;;0.30;0.30;;;19.60;54.10;;;;;;5009368;28;20788;-56
2023/06/01 04:10:40;;;;;;;1.70;0.40;;;19.50;54.10;;;;;;5010126;28;20570;-56
2023/06/01 04:13:10;;;;;;;0.65;0.20;;;19.50;54.00;;;;;;5009590;28;20324;-55
2023/06/01 04:15:43;;;;;;;0.60;0.30;;;19.60;54.10;;;;;;5009577;28;20215;-54
2023/06/01 04:18:14;;;;;;;0.73;0.40;;;19.60;54.10;;;;;;5009804;28;20197;-56
2023/06/01 04:20:45;;;;;;;0.38;0.25;;;19.60;54.00;;;;;;5010335;28;20750;-54
2023/06/01 04:23:16;;;;;;;0.95;0.30;;;19.60;54.00;;;;;;5007102;28;20225;-56
2023/06/01 04:25:51;;;;;;;0.20;0.20;;;19.60;53.90;;;;;;5009657;28;20204;-54
2023/06/01 04:28:24;;;;;;;0.28;0.28;;;19.60;54.50;;;;;;5009974;28;20224;-54
2023/06/01 04:30:56;;;;;;;0.20;0.20;;;19.60;53.90;;;;;;5009304;28;20758;-54
2023/06/01 04:33:27;;;;;;;0.28;0.20;;;19.60;53.90;;;;;;5010055;28;20236;-54
2023/06/01 04:35:58;;;;;;;0.80;0.25;;;19.60;53.80;;;;;;5013879;28;20251;-54
2023/06/01 04:38:29;;;;;;;0.65;0.35;;;19.60;53.80;;;;;;5013500;28;20201;-54
2023/06/01 04:41:00;;;;;;;0.22;0.22;;;19.70;53.90;;;;;;5014358;28;20193;-58
2023/06/01 04:43:31;;;;;;;0.28;0.28;;;19.70;53.90;;;;;;5013643;28;20221;-57
2023/06/01 04:46:04;;;;;;;0.40;0.25;;;19.70;53.90;;;;;;5014028;28;20205;-49
2023/06/01 04:48:35;;;;;;;0.25;0.25;;;19.70;53.80;;;;;;5013465;28;20193;-53
2023/06/01 04:51:06;;;;;;;0.22;0.20;;;19.70;53.80;;;;;;5012781;28;20219;-56
2023/06/01 04:53:37;;;;;;;0.40;0.30;;;19.70;53.80;;;;;;5012268;28;20235;-56
2023/06/01 04:56:08;;;;;;;0.38;0.30;;;19.70;53.80;;;;;;5014188;28;20204;-55
2023/06/01 04:58:38;;;;;;;1.02;0.35;;;19.70;53.80;;;;;;5013146;28;20564;-51
2023/06/01 05:01:15;;;;;;;0.25;0.25;;;19.70;53.80;;;;;;5013363;28;20205;-55
2023/06/01 05:03:46;;;;;;;0.50;0.30;;;19.60;53.80;;;;;;5012569;28;20692;-56
2023/06/01 05:06:20;;;;;;;0.40;0.20;;;19.70;53.70;;;;;;5013362;28;20196;-55
2023/06/01 05:08:50;;;;;;;1.20;0.35;;;19.70;53.80;;;;;;5013554;28;20244;-56
2023/06/01 05:11:21;;;;;;;0.22;0.22;;;19.70;53.80;;;;;;5012434;28;20201;-54
2023/06/01 05:13:54;;;;;;;0.28;0.20;;;19.70;53.80;;;;;;5013064;28;20193;-51
2023/06/01 05:16:27;;;;;;;0.47;0.30;;;19.70;53.80;;;;;;5012250;28;20241;-53
2023/06/01 05:18:57;;;;;;;0.30;0.20;;;19.70;53.80;;;;;;5012769;28;20275;-52
2023/06/01 05:21:28;;;;;;;0.30;0.22;;;19.70;53.80;;;;;;5012461;28;20684;-56
2023/06/01 05:23:59;;;;;;;0.20;0.20;;;19.70;53.80;;;;;;5012368;28;20197;-57
2023/06/01 05:26:30;;;;;;;0.20;0.20;;;19.70;53.80;;;;;;5012867;28;20207;-54
2023/06/01 05:29:00;;;;;;;1.25;0.38;;;19.70;53.80;;;;;;5012910;28;20203;-55
2023/06/01 05:31:33;;;;;;;0.43;0.20;;;19.70;53.80;;;;;;5011946;28;20813;-52
2023/06/01 05:34:04;;;;;;;0.20;0.20;;;19.70;53.80;;;;;;5012423;28;20200;-56
2023/06/01 05:36:35;;;;;;;1.42;0.30;;;19.70;53.80;;;;;;5011372;28;20204;-54
2023/06/01 05:39:06;;;;;;;0.65;0.30;;;19.70;53.80;;;;;;5011649;28;20656;-56
2023/06/01 05:41:36;;;;;;;0.30;0.30;;;19.70;53.80;;;;;;5012540;28;20213;-57
2023/06/01 05:44:07;;;;;;;0.15;0.15;;;19.70;53.80;;;;;;5011957;28;20239;-54
2023/06/01 05:46:40;;;;;;;0.20;0.10;;;19.70;53.90;;;;;;5011663;28;20201;-55
2023/06/01 05:49:10;;;;;;;0.73;0.30;;;19.70;53.90;;;;;;5011661;28;20193;-54
2023/06/01 05:51:42;;;;;;;0.40;0.30;;;19.60;53.80;;;;;;5012076;28;20693;-55
2023/06/01 05:54:13;;;;;;;0.30;0.30;;;19.70;53.90;;;;;;5012127;28;20204;-53
2023/06/01 05:56:44;;;;;;;0.65;0.30;;;19.70;53.90;;;;;;5011272;28;20193;-51
2023/06/01 05:59:15;;;;;;;0.35;0.20;;;19.70;53.90;;;;;;5012082;28;20196;-54
2023/06/01 06:01:48;;;;;;;0.22;0.22;;;19.70;53.90;;;;;;5011722;28;20213;-54
2023/06/01 06:04:19;;;;;;;0.40;0.30;;;19.70;53.90;;;;;;5013030;28;20208;-51
2023/06/01 06:06:50;;;;;;;0.65;0.30;;;19.70;53.90;;;;;;5011822;28;20201;-52
2023/06/01 06:09:20;;;;;;;0.30;0.30;;;19.70;54.50;;;;;;5011537;28;20293;-55
2023/06/01 06:11:51;;;;;;;0.25;0.25;;;19.70;53.90;;;;;;5011867;28;20217;-54
2023/06/01 06:14:22;;;;;;;0.50;0.30;;;19.70;53.90;;;;;;5010865;28;20272;-56
2023/06/01 06:16:54;;;;;;;0.60;0.40;;;19.60;53.90;;;;;;5011808;28;20205;-55
2023/06/01 06:19:25;;;;;;;0.20;0.20;;;19.60;53.90;;;;;;5012114;28;20189;-54
2023/06/01 06:21:56;;;;;;;0.45;0.30;;;19.70;54.00;;;;;;5011662;28;20719;-57
2023/06/01 06:24:29;;;;;;;1.70;0.32;;;19.60;53.90;;;;;;5011609;28;20197;-56
2023/06/01 06:27:00;;;;;;;0.20;0.20;;;19.60;53.90;;;;;;5003221;28;20193;-56
2023/06/01 06:29:31;;;;;;;0.40;0.30;;;19.60;53.90;;;;;;5011028;28;20657;-56
2023/06/01 06:32:04;;;;;;;0.30;0.30;;;19.60;53.90;;;;;;5011194;28;20221;-57
2023/06/01 06:34:35;;;;;;;0.30;0.20;;;19.60;53.90;;;;;;5010577;28;20200;-56
2023/06/01 06:37:07;;;;;;;0.43;0.20;;;19.60;53.90;;;;;;5010844;28;20348;-57
2023/06/01 06:39:38;;;;;;;0.40;0.30;;;19.60;53.90;;;;;;4992189;28;20194;-56
2023/06/01 06:42:09;;;;;;;0.60;0.40;;;19.60;53.80;;;;;;4992718;28;20249;-57
2023/06/01 06:44:40;;;;;;;0.90;0.50;;;19.60;53.90;;;;;;5010922;28;20199;-56
2023/06/01 06:47:14;;;;;;;0.60;0.40;;;19.60;53.90;;;;;;5010565;28;20205;-57
2023/06/01 06:49:45;;;;;;;0.45;0.45;;;19.60;53.90;;;;;;5005472;28;20262;-56
2023/06/01 06:52:15;;;;;;;2.20;0.40;;;19.60;53.90;;;;;;5010856;28;20693;-56
2023/06/01 06:54:46;;;;;;;0.40;0.40;;;19.50;53.80;;;;;;5011706;28;20196;-58
2023/06/01 06:57:17;;;;;;;0.35;0.35;;;19.50;53.90;;;;;;5010418;28;20196;-56
2023/06/01 06:59:47;;;;;;;1.00;0.40;;;19.50;53.90;;;;;;5002162;28;20205;-57
2023/06/01 07:02:20;;;;;;;0.45;0.40;;;19.60;53.90;;;;;;5008631;28;20220;-55
2023/06/01 07:04:51;;;;;;;0.75;0.50;;;19.50;53.90;;;;;;5011725;28;20289;-56
2023/06/01 07:07:22;;;;;;;1.48;0.40;;;19.50;53.90;;;;;;5005079;28;20233;-56
2023/06/01 07:09:52;;;;;;;1.33;0.80;;;19.50;53.90;;;;;;4991255;28;20657;-55
2023/06/01 07:12:23;;;;;;;0.82;0.70;;;19.50;53.90;;;;;;4999986;28;20688;-57
2023/06/01 07:14:54;;;;;;;1.38;0.63;;;19.50;53.90;;;;;;5011043;28;20200;-57
2023/06/01 07:17:26;;;;;;;0.50;0.50;;;19.50;53.90;;;;;;5008861;28;20653;-57
2023/06/01 07:19:57;;;;;;;1.08;0.80;;;19.50;53.90;;;;;;5001177;28;20212;-56
2023/06/01 07:22:27;;;;;;;0.80;0.70;;;19.50;53.90;;;;;;5010364;28;20224;-56
2023/06/01 07:24:58;;;;;;;1.38;0.70;;;19.50;53.90;;;;;;5011132;28;20207;-56
2023/06/01 07:27:29;;;;;;;1.10;1.00;;;19.50;54.00;;;;;;5010451;28;20192;-56
2023/06/01 07:29:59;;;;;;;1.15;0.70;;;19.50;54.00;;;;;;5010629;28;20247;-56
2023/06/01 07:32:32;;;;;;;0.80;0.70;;;19.40;54.00;;;;;;5009540;28;20228;-57
2023/06/01 07:35:04;;;;;;;0.88;0.80;;;19.40;53.90;;;;;;4990553;28;20204;-58
2023/06/01 07:37:35;;;;;;;0.93;0.80;;;19.40;54.00;;;;;;5003074;28;20631;-58
2023/06/01 07:40:07;;;;;;;0.73;0.65;;;19.40;54.10;;;;;;5010476;28;20204;-58
2023/06/01 07:42:38;;;;;;;0.60;0.60;;;19.40;54.00;;;;;;5010640;28;20221;-58
2023/06/01 07:45:10;;;;;;;1.15;0.73;;;19.50;54.70;;;;;;5010667;28;20196;-57
2023/06/01 07:47:43;;;;;;;0.65;0.60;;;19.40;54.00;;;;;;5003044;28;20225;-58
2023/06/01 07:50:14;;;;;;;0.73;0.63;;;19.40;54.00;;;;;;5009379;28;20197;-58
2023/06/01 07:52:44;;;;;;;0.57;0.57;;;19.40;54.00;;;;;;5009131;28;20220;-58
2023/06/01 07:55:16;;;;;;;0.75;0.73;;;19.40;54.00;;;;;;5009705;28;20219;-57
2023/06/01 07:57:46;;;;;;;0.80;0.65;;;19.40;54.00;;;;;;5010330;28;20196;-58
2023/06/01 08:00:18;;;;;;;1.48;0.77;;;19.40;54.10;;;;;;5008953;28;20685;-58
2023/06/01 08:02:53;;;;;;;1.58;0.65;;;19.40;54.00;;;;;;5009273;28;20340;-69
2023/06/01 08:05:24;;;;;;;2.00;0.80;;;19.40;54.00;;;;;;5009064;28;20205;-57
2023/06/01 08:07:56;;;;;;;0.60;0.60;;;19.40;54.00;;;;;;5010611;28;20203;-58
2023/06/01 08:10:27;;;;;;;0.90;0.70;;;19.40;54.00;;;;;;5013160;28;20270;-57
2023/06/01 08:12:57;;;;;;;1.58;0.77;;;19.40;54.00;;;;;;5013430;28;20240;-58
2023/06/01 08:15:28;;;;;;;0.70;0.70;;;19.30;54.00;;;;;;5013669;28;20657;-58
2023/06/01 08:18:01;;;;;;;1.65;0.90;;;19.30;54.10;;;;;;5013469;28;20189;-58
2023/06/01 08:20:31;;;;;;;0.65;0.60;;;19.30;54.00;;;;;;5013215;28;20215;-58
2023/06/01 08:23:02;;;;;;;0.60;0.60;;;19.40;54.10;;;;;;5013420;28;20239;-58
2023/06/01 08:25:33;;;;;;;0.60;0.60;;;19.30;54.00;;;;;;5014082;28;20255;-58
2023/06/01 08:28:04;;;;;;;0.70;0.70;;;19.30;54.00;;;;;;5013821;28;20797;-58
2023/06/01 08:30:34;;;;;;;0.70;0.70;;;19.30;54.10;;;;;;5013726;28;20672;-57
2023/06/01 08:33:07;;;;;;;0.82;0.65;;;19.40;54.10;;;;;;5013606;28;20227;-58
2023/06/01 08:35:37;;;;;;;0.82;0.60;;;19.30;54.00;;;;;;5013485;28;20203;-58
2023/06/01 08:38:08;;;;;;;0.90;0.60;;;19.30;54.10;;;;;;5013570;28;20192;-57
2023/06/01 08:40:40;;;;;;;1.00;0.80;;;19.30;54.00;;;;;;5013666;28;20208;-57
2023/06/01 08:43:16;;;;;;;0.70;0.70;;;19.30;54.60;;;;;;5013045;28;20315;-58
2023/06/01 08:45:51;;;;;;;0.90;0.80;;;19.30;54.00;;;;;;5013788;28;20247;-57
2023/06/01 08:48:23;;;;;;;0.90;0.73;;;19.30;54.00;;;;;;5014009;28;20566;-56
2023/06/01 08:50:55;;;;;;;0.60;0.60;;;19.30;54.00;;;;;;5012707;28;20200;-58
2023/06/01 08:53:26;;;;;;;0.60;0.60;;;19.30;54.00;;;;;;5012934;28;20229;-57
2023/06/01 08:55:57;;;;;;;0.60;0.60;;;19.30;54.00;;;;;;5013561;28;20857;-58
2023/06/01 08:58:29;;;;;;;0.85;0.65;;;19.30;54.00;;;;;;5013763;28;20560;-58
2023/06/01 09:01:01;;;;;;;1.27;0.70;;;19.30;54.00;;;;;;5013428;28;20203;-56
2023/06/01 09:03:34;;;;;;;0.60;0.60;;;19.30;54.00;;;;;;5013901;28;20286;-57
2023/06/01 09:06:04;;;;;;;0.50;0.50;;;19.30;54.00;;;;;;5013575;28;20197;-58
2023/06/01 09:08:35;;;;;;;0.55;0.55;;;19.30;53.90;;;;;;5013682;28;20204;-58
2023/06/01 09:11:06;;;;;;;0.82;0.70;;;19.30;53.90;;;;;;5013732;28;20200;-57
2023/06/01 09:13:37;;;;;;;1.55;0.68;;;19.30;53.80;;;;;;5013654;28;20203;-57
2023/06/01 09:16:08;;;;;;;1.02;0.68;;;19.30;53.90;;;;;;5013506;28;20684;-58
2023/06/01 09:18:55;;;;;;;0.70;0.70;;;19.30;53.90;;;;;;5013216;28;20204;-57
2023/06/01 09:21:25;;;;;;;0.63;0.63;;;19.30;53.90;;;;;;5012029;28;20270;-58
2023/06/01 09:23:56;;;;;;;1.20;0.60;;;19.30;53.90;;;;;;5012223;28;20225;-58
2023/06/01 09:26:30;;;;;;;0.80;0.70;;;19.30;53.90;;;;;;5012826;28;20255;-57
2023/06/01 09:29:02;;;;;;;0.80;0.70;;;19.30;53.80;;;;;;5012636;28;20688;-57
2023/06/01 09:31:40;;;;;;;1.35;0.70;;;19.30;53.80;;;;;;5012584;28;20216;-57
2023/06/01 09:34:15;;;;;;;0.68;0.68;;;19.30;53.80;;;;;;5012336;28;20204;-57
2023/06/01 09:36:46;;;;;;;0.90;0.60;;;19.30;53.80;;;;;;5012475;28;20764;-57
2023/06/01 09:39:18;;;;;;;0.77;0.70;;;19.30;53.80;;;;;;5012922;28;20204;-57
2023/06/01 09:41:54;;;;;;;1.05;0.70;;;19.30;53.80;;;;;;5012814;28;20603;-57
2023/06/01 09:44:31;;;;;;;0.60;0.60;;;19.30;53.80;;;;;;5012665;28;20224;-57
2023/06/01 09:47:03;;;;;;;0.63;0.63;;;19.30;53.80;;;;;;5012991;28;20208;-58
2023/06/01 09:49:37;;;;;;;0.95;0.68;;;19.30;53.80;;;;;;5012840;28;20197;-58
2023/06/01 09:52:16;;;;;;;0.75;0.75;;;19.30;53.80;;;;;;5012875;28;20221;-57
2023/06/01 09:54:48;;;;;;;0.77;0.77;;;19.30;53.80;;;;;;5012232;28;20752;-57
2023/06/01 09:57:25;;;;;;;0.80;0.70;;;19.30;53.80;;;;;;5012714;28;20676;-58
2023/06/01 09:59:56;;;;;;;0.75;0.63;;;19.30;53.80;;;;;;5012192;28;20200;-56
2023/06/01 10:02:27;;;;;;;0.77;0.70;;;19.30;53.80;;;;;;5012456;28;20224;-57
2023/06/01 10:04:59;;;;;;;0.80;0.80;;;19.30;53.80;;;;;;5013029;28;20213;-58
2023/06/01 10:07:33;;;;;;;1.27;0.80;;;19.30;54.00;;;;;;5009153;28;20224;-58
2023/06/01 10:10:05;;;;;;;0.60;0.60;;;19.30;54.00;;;;;;5006964;28;20212;-58
2023/06/01 10:12:36;;;;;;;0.65;0.63;;;19.30;54.00;;;;;;5010767;28;20212;-58
2023/06/01 10:15:07;;;;;;;0.80;0.75;;;19.30;54.10;;;;;;5010044;28;20196;-58
2023/06/01 10:17:42;;;;;;;0.60;0.60;;;19.30;54.00;;;;;;5011779;28;20677;-58
2023/06/01 10:20:16;;;;;;;0.50;0.50;;;19.30;53.90;;;;;;5011717;28;20204;-58
2023/06/01 10:22:47;;;;;;;0.77;0.60;;;19.30;53.80;;;;;;5011590;28;20265;-58
2023/06/01 10:25:20;;;;;;;0.50;0.47;;;19.30;53.90;;;;;;5011520;28;20234;-58
2023/06/01 10:28:00;;;;;;;2.45;0.70;;;19.30;53.80;;;;;;5012280;28;20201;-58
2023/06/01 10:30:31;;;;;;;0.60;0.60;;;19.30;53.80;;;;;;5011155;28;20228;-58
2023/06/01 10:33:02;;;;;;;0.60;0.60;;;19.30;53.80;;;;;;5010096;28;20235;-58
2023/06/01 10:36:07;;;;;;;0.73;0.65;;;19.30;53.70;;;;;;5011379;28;20567;-58
2023/06/01 10:38:37;;;;;;;0.88;0.70;;;19.30;53.70;;;;;;5011831;28;20192;-58
2023/06/01 10:41:32;;;;;;;0.57;0.43;;;19.40;53.80;;;;;;5010995;28;20208;-58
2023/06/01 10:44:03;;;;;;;0.82;0.60;;;19.30;53.70;;;;;;5010563;28;20608;-58
2023/06/01 10:46:45;;;;;;;0.70;0.63;;;19.40;53.70;;;;;;5011357;28;20204;-58
2023/06/01 10:49:15;;;;;;;0.60;0.47;;;19.40;53.70;;;;;;5011916;28;20212;-58
2023/06/01 10:51:48;;;;;;;1.17;0.68;;;19.40;53.70;;;;;;5011352;28;20213;-58
2023/06/01 10:54:41;;;;;;;0.60;0.60;;;19.30;53.60;;;;;;5010751;28;20252;-58
2023/06/01 10:57:28;;;;;;;0.98;0.47;;;19.30;53.70;;;;;;5010719;28;20200;-58
2023/06/01 11:00:19;;;;;;;0.82;0.60;;;19.40;53.70;;;;;;5010297;28;20199;-58
2023/06/01 11:02:57;;;;;;;0.55;0.50;;;19.40;53.70;;;;;;5011451;28;20224;-58
2023/06/01 11:05:46;;;;;;;0.77;0.68;;;19.30;53.70;;;;;;5011239;28;20224;-58
2023/06/01 11:08:56;;;;;;;4.30;0.77;;;19.40;53.70;;;;;;5010185;28;20283;-58
2023/06/01 11:11:47;;;;;;;0.47;0.45;;;19.40;53.70;;;;;;5010356;28;20217;-59
2023/06/01 11:14:19;;;;;;;1.23;0.60;;;19.40;53.70;;;;;;4993332;28;20208;-58
2023/06/01 11:16:50;;;;;;;0.85;0.57;;;19.40;53.70;;;;;;5011234;28;20669;-59
2023/06/01 11:19:26;;;;;;;0.77;0.77;;;19.40;53.70;;;;;;5011612;28;20193;-59
2023/06/01 11:22:01;;;;;;;0.93;0.52;;;19.30;53.60;;;;;;5010125;28;20251;-58
2023/06/01 11:24:38;;;;;;;0.93;0.50;;;19.30;53.60;;;;;;5009539;28;20779;-59
2023/06/01 11:27:10;;;;;;;0.68;0.60;;;19.30;53.60;;;;;;5010515;28;20188;-58
2023/06/01 11:29:50;;;;;;;0.70;0.60;;;19.30;53.60;;;;;;5010623;28;20200;-58
2023/06/01 11:32:27;;;;;;;0.55;0.50;;;19.40;53.70;;;;;;5010539;28;20239;-59
2023/06/01 11:34:57;;;;;;;0.90;0.60;;;19.40;53.70;;;;;;5010883;28;20211;-59
2023/06/01 11:37:28;;;;;;;0.50;0.47;;;19.40;53.70;;;;;;5008994;28;20193;-58
2023/06/01 11:40:10;;;;;;;0.50;0.50;;;19.40;53.70;;;;;;5010142;28;20204;-59
2023/06/01 11:42:40;;;;;;;0.50;0.40;;;19.40;53.70;;;;;;5011730;28;20220;-59
2023/06/01 11:45:18;;;;;;;0.60;0.50;;;19.40;53.70;;;;;;5014943;28;20228;-59
2023/06/01 11:47:49;;;;;;;0.85;0.60;;;19.40;53.70;;;;;;5014828;28;20220;-59
2023/06/01 11:50:27;;;;;;;0.63;0.55;;;19.40;53.70;;;;;;5012696;28;20645;-59
2023/06/01 11:52:58;;;;;;;0.60;0.60;;;19.40;53.70;;;;;;5012074;28;20205;-59
2023/06/01 11:55:31;;;;;;;0.57;0.50;;;19.40;53.70;;;;;;5014370;28;20185;-58
2023/06/01 11:58:02;;;;;;;1.00;0.45;;;19.40;53.70;;;;;;5012672;28;20193;-58
2023/06/01 12:00:32;;;;;;;1.33;0.60;;;19.40;53.70;;;;;;5014582;28;20589;-59
2023/06/01 12:03:10;;;;;;;0.82;0.50;;;19.40;53.70;;;;;;5015200;28;20236;-74
2023/06/01 12:05:48;;;;;;;1.33;0.50;;;19.40;53.70;;;;;;5012499;28;20580;-59
2023/06/01 12:08:20;;;;;;;0.60;0.52;;;19.40;53.70;;;;;;5014538;28;20196;-59
2023/06/01 12:10:55;;;;;;;0.40;0.40;;;19.40;53.70;;;;;;5014678;28;20200;-58
2023/06/01 12:13:26;;;;;;;0.50;0.50;;;19.30;53.60;;;;;;5013287;28;20212;-59
2023/06/01 12:15:57;;;;;;;0.45;0.40;;;19.40;53.60;;;;;;5011894;28;20200;-58
2023/06/01 12:18:34;;;;;;;0.95;0.50;;;19.40;53.70;;;;;;5014197;28;20197;-58
2023/06/01 12:21:12;;;;;;;0.50;0.40;;;19.40;53.70;;;;;;5012302;28;20280;-58
2023/06/01 12:23:43;;;;;;;0.40;0.40;;;19.40;53.70;;;;;;5012049;28;20196;-59
2023/06/01 12:26:16;;;;;;;0.50;0.50;;;19.40;53.60;;;;;;5013820;28;20236;-59
2023/06/01 12:28:54;;;;;;;0.95;0.50;;;19.40;54.20;;;;;;5014122;28;20260;-59
2023/06/01 12:31:25;;;;;;;0.60;0.60;;;19.30;53.50;;;;;;5012690;28;20244;-59
2023/06/01 12:33:55;;;;;;;0.60;0.47;;;19.40;53.50;;;;;;5013876;28;20193;-59
2023/06/01 12:36:34;;;;;;;1.60;0.55;;;19.40;53.50;;;;;;5013750;28;20197;-59
2023/06/01 12:39:05;;;;;;;0.45;0.30;;;19.30;53.50;;;;;;5011683;28;20192;-59
2023/06/01 12:41:38;;;;;;;0.68;0.50;;;19.40;53.50;;;;;;5013869;28;20209;-59
2023/06/01 12:44:09;;;;;;;0.40;0.40;;;19.40;53.50;;;;;;5013915;28;20760;-59
2023/06/01 12:46:40;;;;;;;1.20;0.50;;;19.40;53.50;;;;;;5011520;28;20280;-59
2023/06/01 12:49:18;;;;;;;0.85;0.65;;;19.40;53.50;;;;;;5012828;28;20188;-59
2023/06/01 12:51:49;;;;;;;0.40;0.40;;;19.40;53.50;;;;;;5011967;28;20213;-59
2023/06/01 12:54:20;;;;;;;0.50;0.50;;;19.40;53.40;;;;;;5009325;28;20200;-59
2023/06/01 12:56:53;;;;;;;0.75;0.60;;;19.40;53.40;;;;;;5013185;28;20601;-59
2023/06/01 12:59:24;;;;;;;0.45;0.30;;;19.40;53.40;;;;;;5011903;28;20558;-59
2023/06/01 13:01:55;;;;;;;0.40;0.40;;;19.40;53.50;;;;;;5013571;28;20231;-59
2023/06/01 13:04:26;;;;;;;1.60;0.40;;;19.40;53.50;;;;;;5013988;28;20575;-58
2023/06/01 13:06:56;;;;;;;1.00;0.40;;;19.40;53.40;;;;;;5013688;28;20223;-59
2023/06/01 13:09:27;;;;;;;0.32;0.32;;;19.40;53.50;;;;;;5013187;28;20196;-59
2023/06/01 13:12:00;;;;;;;0.65;0.50;;;19.40;53.50;;;;;;5013185;28;20241;-59
2023/06/01 13:14:30;;;;;;;0.32;0.32;;;19.40;53.50;;;;;;5013386;28;20569;-59
2023/06/01 13:17:02;;;;;;;0.75;0.50;;;19.40;53.50;;;;;;5011314;28;20676;-59